Washington Boro, Pennsylvania
Current Conditions -  °F | °C
As of 5:30 PM on Sunday 21 Dec 2014 (Local Time) from KLNS Reporting Station
Scattered Clouds Scattered Clouds  
Wind Chill: 25°   Ceiling: Unl
Heat Index: 30°   Visibility: 10mi
Dew Point: 21°   Wind: 5mph
Humidity: 69%   Direction: 360°N
Pressure: 30.32"   Gusts: NA
Location:  39.99°N, 76.47°W
Report Text: KLNS 212230Z 36004KT 10SM SCT026 M01/M06 A3032 RMK AO2 T10111061
Loading
Personal Weather Stations






























Interactive Weather Map New forecast layout! Learn more

10-Day Weather Forecast

Advertisements
Track Severe Weather on mobile